Time;durP1;ratioP1;P1;durP2;ratioP2;P2;SDS_P1;SDS_P2;PMS_P1;PMS_P2;Temp;Humidity;BMP_temperature;BMP_pressure;BME280_temperature;BME280_humidity;BME280_pressure;Samples;Min_cycle;Max_cycle;Signal;HPM_P1;HPM_P2
2023/08/24 00:00:40;;;;;;;;;;;22.90;99.90;;;;;;4594515;19;20356;-59
2023/08/24 00:02:34;;;;;;;;;;;22.90;99.90;;;;;;4596066;19;20284;-59
2023/08/24 00:04:09;;;;;;;;;;;22.90;99.90;;;;;;4595512;19;19934;-59
2023/08/24 00:05:42;;;;;;;;;;;22.90;99.90;;;;;;4596003;19;20246;-59
2023/08/24 00:07:16;;;;;;;;;;;22.90;99.90;;;;;;4595924;19;19918;-59
2023/08/24 00:08:51;;;;;;;;;;;22.90;99.90;;;;;;4595914;19;19915;-59
2023/08/24 00:10:24;;;;;;;;;;;22.90;99.90;;;;;;4595953;19;20281;-59
2023/08/24 00:11:57;;;;;;;;;;;22.90;99.90;;;;;;4595865;19;19919;-59
2023/08/24 00:13:32;;;;;;;;;;;22.90;99.90;;;;;;4595868;19;20296;-59
2023/08/24 00:15:08;;;;;;;;;;;23.00;99.90;;;;;;4594357;19;19915;-59
2023/08/24 00:16:42;;;;;;;;;;;23.00;99.90;;;;;;4593579;19;19926;-59
2023/08/24 00:18:18;;;;;;;;;;;22.90;99.90;;;;;;4595189;19;19918;-59
2023/08/24 00:19:52;;;;;;;;;;;22.90;99.90;;;;;;4594985;19;19983;-59
2023/08/24 00:21:25;;;;;;;;;;;22.90;99.90;;;;;;4595665;19;19926;-59
2023/08/24 00:23:00;;;;;;;;;;;22.90;99.90;;;;;;4595654;19;19948;-59
2023/08/24 00:24:33;;;;;;;;;;;22.90;99.90;;;;;;4594716;19;20346;-59
2023/08/24 00:26:07;;;;;;;;;;;22.90;99.90;;;;;;4595567;19;19923;-59
2023/08/24 00:27:41;;;;;;;;;;;22.90;99.90;;;;;;4595567;19;19919;-59
2023/08/24 00:29:15;;;;;;;;;;;22.90;99.90;;;;;;4595528;19;19911;-59
2023/08/24 00:30:48;;;;;;;;;;;22.90;99.90;;;;;;4595503;19;19919;-59
2023/08/24 00:32:23;;;;;;;;;;;22.90;99.90;;;;;;4595464;19;19986;-59
2023/08/24 00:33:57;;;;;;;;;;;22.90;99.90;;;;;;4595203;19;19915;-59
2023/08/24 00:35:31;;;;;;;;;;;22.80;99.90;;;;;;4595420;19;20324;-59
2023/08/24 00:37:06;;;;;;;;;;;22.90;99.90;;;;;;4595346;19;19971;-59
2023/08/24 00:38:39;;;;;;;;;;;22.80;99.90;;;;;;4595322;19;19940;-59
2023/08/24 00:40:13;;;;;;;;;;;22.90;99.90;;;;;;4594337;19;19918;-59
2023/08/24 00:41:47;;;;;;;;;;;22.80;99.90;;;;;;4595282;19;20204;-57
2023/08/24 00:43:23;;;;;;;;;;;22.80;99.90;;;;;;4595236;19;19915;-59
2023/08/24 00:44:57;;;;;;;;;;;22.80;99.90;;;;;;4593802;19;19935;-59
2023/08/24 00:46:31;;;;;;;;;;;22.80;99.90;;;;;;4595212;19;20296;-59
2023/08/24 00:48:05;;;;;;;;;;;22.80;99.90;;;;;;4595141;19;20247;-59
2023/08/24 00:49:38;;;;;;;;;;;22.80;99.90;;;;;;4595057;19;20004;-58
2023/08/24 00:51:12;;;;;;;;;;;22.80;99.90;;;;;;4595103;19;19915;-59
2023/08/24 00:52:46;;;;;;;;;;;22.80;99.90;;;;;;4595026;19;19926;-59
2023/08/24 00:54:19;;;;;;;;;;;22.80;99.90;;;;;;4593137;19;19914;-59
2023/08/24 00:55:53;;;;;;;;;;;22.80;99.90;;;;;;4594602;19;19915;-59
2023/08/24 00:57:29;;;;;;;;;;;22.80;99.90;;;;;;4594945;19;19919;-59
2023/08/24 00:59:03;;;;;;;;;;;22.80;99.90;;;;;;4594935;19;19919;-59
2023/08/24 01:00:37;;;;;;;;;;;22.80;99.90;;;;;;4591978;19;19919;-59
2023/08/24 01:02:11;;;;;;;;;;;22.80;99.90;;;;;;4594850;19;19925;-59
2023/08/24 01:03:45;;;;;;;;;;;22.80;99.90;;;;;;4593931;19;20239;-59
2023/08/24 01:05:20;;;;;;;;;;;22.80;99.90;;;;;;4594484;19;19923;-59
2023/08/24 01:06:53;;;;;;;;;;;22.80;99.90;;;;;;4594760;19;19939;-59
2023/08/24 01:08:26;;;;;;;;;;;22.70;99.90;;;;;;4594670;19;20274;-59
2023/08/24 01:10:01;;;;;;;;;;;22.70;99.90;;;;;;4594665;19;19926;-59
2023/08/24 01:11:47;;;;;;;;;;;22.70;99.90;;;;;;4593383;19;20157;-58
2023/08/24 01:13:25;;;;;;;;;;;22.80;99.90;;;;;;4593384;19;19915;-59
2023/08/24 01:15:04;;;;;;;;;;;22.70;99.90;;;;;;4593220;19;20296;-59
2023/08/24 01:16:40;;;;;;;;;;;22.70;99.90;;;;;;4593306;19;19915;-59
2023/08/24 01:18:16;;;;;;;;;;;22.70;99.90;;;;;;4593292;19;20296;-59
2023/08/24 01:19:51;;;;;;;;;;;22.80;99.90;;;;;;4592633;19;19974;-59
2023/08/24 01:21:25;;;;;;;;;;;22.70;99.90;;;;;;4594108;19;19939;-59
2023/08/24 01:23:05;;;;;;;;;;;22.70;99.90;;;;;;4594398;19;19918;-59
2023/08/24 01:24:48;;;;;;;;;;;22.70;99.90;;;;;;4593571;19;19915;-59
2023/08/24 01:26:21;;;;;;;;;;;22.70;99.90;;;;;;4594434;19;19925;-59
2023/08/24 01:27:56;;;;;;;;;;;22.70;99.90;;;;;;4594296;19;19925;-59
2023/08/24 01:29:32;;;;;;;;;;;22.70;99.90;;;;;;4594202;19;20229;-59
2023/08/24 01:31:09;;;;;;;;;;;22.70;99.90;;;;;;4594221;19;20296;-59
2023/08/24 01:32:43;;;;;;;;;;;22.80;99.90;;;;;;4594166;19;19923;-59
2023/08/24 01:34:18;;;;;;;;;;;22.80;99.90;;;;;;4593682;19;19934;-58
2023/08/24 01:35:51;;;;;;;;;;;22.70;99.90;;;;;;4594170;19;19914;-59
2023/08/24 01:37:25;;;;;;;;;;;22.70;99.90;;;;;;4592807;19;19935;-59
2023/08/24 01:39:07;;;;;;;;;;;22.70;99.90;;;;;;4593752;19;19915;-59
2023/08/24 01:40:49;;;;;;;;;;;22.80;99.90;;;;;;4591706;19;19914;-59
2023/08/24 01:42:22;;;;;;;;;;;22.70;99.90;;;;;;4592725;19;19915;-58
2023/08/24 01:43:57;;;;;;;;;;;22.70;99.90;;;;;;4592434;19;19938;-58
2023/08/24 01:45:31;;;;;;;;;;;22.80;99.90;;;;;;4592885;19;19919;-58
2023/08/24 01:47:04;;;;;;;;;;;22.70;99.90;;;;;;4593991;19;19986;-58
2023/08/24 01:48:39;;;;;;;;;;;22.70;99.90;;;;;;4593890;19;19916;-58
2023/08/24 01:50:14;;;;;;;;;;;22.70;99.90;;;;;;4593874;19;20323;-58
2023/08/24 01:51:48;;;;;;;;;;;22.70;99.90;;;;;;4593796;19;19921;-58
2023/08/24 01:53:23;;;;;;;;;;;22.70;99.90;;;;;;4593794;19;19919;-58
2023/08/24 01:54:56;;;;;;;;;;;22.70;99.90;;;;;;4592815;19;19914;-58
2023/08/24 01:56:30;;;;;;;;;;;22.70;99.90;;;;;;4593746;19;19907;-58
2023/08/24 01:58:06;;;;;;;;;;;22.70;99.90;;;;;;4593716;19;19990;-58
2023/08/24 01:59:39;;;;;;;;;;;22.70;99.90;;;;;;4593298;19;19918;-58
2023/08/24 02:01:12;;;;;;;;;;;22.70;99.90;;;;;;4593680;19;19911;-58
2023/08/24 02:02:47;;;;;;;;;;;22.70;99.90;;;;;;4593598;19;19926;-58
2023/08/24 02:04:20;;;;;;;;;;;22.70;99.90;;;;;;4593068;19;20292;-58
2023/08/24 02:05:54;;;;;;;;;;;22.60;99.90;;;;;;4593517;19;19919;-58
2023/08/24 02:07:29;;;;;;;;;;;22.70;99.90;;;;;;4593491;19;19918;-58
2023/08/24 02:09:03;;;;;;;;;;;22.70;99.90;;;;;;4593476;19;20231;-58
2023/08/24 02:10:36;;;;;;;;;;;22.70;99.90;;;;;;4593333;19;19975;-58
2023/08/24 02:12:11;;;;;;;;;;;22.80;99.90;;;;;;4590874;19;19915;-58
2023/08/24 02:13:44;;;;;;;;;;;22.80;99.90;;;;;;4593402;19;19922;-58
2023/08/24 02:15:19;;;;;;;;;;;22.80;99.90;;;;;;4593364;19;19911;-57
2023/08/24 02:16:54;;;;;;;;;;;22.80;99.90;;;;;;4593286;19;19919;-58
2023/08/24 02:18:27;;;;;;;;;;;22.90;99.90;;;;;;4593291;19;19919;-58
2023/08/24 02:20:01;;;;;;;;;;;22.90;99.90;;;;;;4592755;19;19919;-58
2023/08/24 02:21:36;;;;;;;;;;;22.90;99.90;;;;;;4593232;19;19918;-58
2023/08/24 02:23:10;;;;;;;;;;;22.90;99.90;;;;;;4593203;19;19952;-58
2023/08/24 02:24:43;;;;;;;;;;;22.90;99.90;;;;;;4592499;19;19919;-58
2023/08/24 02:26:18;;;;;;;;;;;22.90;99.90;;;;;;4593169;19;19915;-58
2023/08/24 02:27:51;;;;;;;;;;;22.90;99.90;;;;;;4593124;19;20263;-58
2023/08/24 02:29:24;;;;;;;;;;;22.90;99.90;;;;;;4593162;19;19915;-58
2023/08/24 02:31:04;;;;;;;;;;;22.90;99.90;;;;;;4593070;19;19932;-57
2023/08/24 02:32:37;;;;;;;;;;;22.90;99.90;;;;;;4593065;19;20236;-58
2023/08/24 02:34:11;;;;;;;;;;;22.90;99.90;;;;;;4592570;19;19915;-58
2023/08/24 02:35:47;;;;;;;;;;;22.90;99.90;;;;;;4592997;19;19926;-58
2023/08/24 02:37:21;;;;;;;;;;;22.90;99.90;;;;;;4592960;19;19918;-58
2023/08/24 02:38:54;;;;;;;;;;;22.90;99.90;;;;;;4592954;19;20237;-58
2023/08/24 02:40:29;;;;;;;;;;;22.90;99.90;;;;;;4591991;19;20296;-56
2023/08/24 02:42:02;;;;;;;;;;;22.90;99.90;;;;;;4592879;19;19919;-57
2023/08/24 02:43:35;;;;;;;;;;;22.90;99.90;;;;;;4592849;19;19911;-58
2023/08/24 02:45:10;;;;;;;;;;;22.80;99.90;;;;;;4591418;19;19919;-58
2023/08/24 02:46:48;;;;;;;;;;;22.80;99.90;;;;;;4592828;19;19915;-58
2023/08/24 02:48:22;;;;;;;;;;;22.90;99.90;;;;;;4592760;19;20296;-58
2023/08/24 02:49:57;;;;;;;;;;;22.80;99.90;;;;;;4592750;19;19940;-57
2023/08/24 02:51:31;;;;;;;;;;;22.80;99.90;;;;;;4592770;19;19918;-57
2023/08/24 02:53:04;;;;;;;;;;;22.80;99.90;;;;;;4592751;19;20237;-58
2023/08/24 02:54:39;;;;;;;;;;;22.80;99.90;;;;;;4591903;19;19915;-58
2023/08/24 02:56:12;;;;;;;;;;;22.80;99.90;;;;;;4592663;19;19915;-57
2023/08/24 02:57:46;;;;;;;;;;;22.80;99.90;;;;;;4592601;19;19921;-57
2023/08/24 02:59:22;;;;;;;;;;;22.80;99.90;;;;;;4592897;19;19918;-57
2023/08/24 03:00:55;;;;;;;;;;;22.70;99.90;;;;;;4592557;19;19926;-58
2023/08/24 03:02:28;;;;;;;;;;;22.80;99.90;;;;;;4592490;19;19943;-58
2023/08/24 03:04:04;;;;;;;;;;;22.80;99.90;;;;;;4592165;19;19944;-58
2023/08/24 03:05:38;;;;;;;;;;;22.70;99.90;;;;;;4592459;19;19915;-57
2023/08/24 03:07:12;;;;;;;;;;;22.70;99.90;;;;;;4592431;19;19922;-58
2023/08/24 03:08:47;;;;;;;;;;;22.70;99.90;;;;;;4592466;19;19915;-58
2023/08/24 03:10:20;;;;;;;;;;;22.70;99.90;;;;;;4592363;19;19926;-58
2023/08/24 03:11:54;;;;;;;;;;;22.70;99.90;;;;;;4592388;19;19926;-58
2023/08/24 03:13:29;;;;;;;;;;;22.70;99.90;;;;;;4592310;19;19919;-57
2023/08/24 03:15:03;;;;;;;;;;;22.70;99.90;;;;;;4591216;19;19921;-58
2023/08/24 03:16:37;;;;;;;;;;;22.70;99.90;;;;;;4592271;19;20300;-57
2023/08/24 03:18:12;;;;;;;;;;;22.70;99.90;;;;;;4592322;19;19915;-58
2023/08/24 03:19:45;;;;;;;;;;;22.70;99.90;;;;;;4591835;19;19925;-58
2023/08/24 03:21:19;;;;;;;;;;;22.70;99.90;;;;;;4592157;19;19925;-57
2023/08/24 03:22:54;;;;;;;;;;;22.70;99.90;;;;;;4592830;19;19926;-57
2023/08/24 03:24:27;;;;;;;;;;;22.70;99.90;;;;;;4595950;19;19926;-57
2023/08/24 03:26:02;;;;;;;;;;;22.70;99.90;;;;;;4596817;19;19921;-56
2023/08/24 03:27:38;;;;;;;;;;;22.60;99.90;;;;;;4596811;19;19932;-57
2023/08/24 03:29:12;;;;;;;;;;;22.60;99.90;;;;;;4595395;19;20002;-57
2023/08/24 03:30:49;;;;;;;;;;;22.60;99.90;;;;;;4596290;19;19922;-57
2023/08/24 03:32:23;;;;;;;;;;;22.60;99.90;;;;;;4596703;19;20219;-57
2023/08/24 03:33:57;;;;;;;;;;;22.70;99.90;;;;;;4596462;19;19927;-57
2023/08/24 03:35:32;;;;;;;;;;;22.70;99.90;;;;;;4596622;19;19915;-57
2023/08/24 03:37:07;;;;;;;;;;;22.70;99.90;;;;;;4596592;19;19932;-57
2023/08/24 03:38:42;;;;;;;;;;;22.80;99.90;;;;;;4596579;19;19953;-56
2023/08/24 03:40:17;;;;;;;;;;;22.80;99.90;;;;;;4595453;19;19919;-58
2023/08/24 03:41:50;;;;;;;;;;;22.80;99.90;;;;;;4596446;19;19993;-56
2023/08/24 03:43:23;;;;;;;;;;;22.80;99.90;;;;;;4596465;19;19911;-57
2023/08/24 03:44:59;;;;;;;;;;;22.80;99.90;;;;;;4594488;19;20265;-59
2023/08/24 03:46:33;;;;;;;;;;;22.80;99.90;;;;;;4596471;19;19915;-56
2023/08/24 03:48:07;;;;;;;;;;;22.90;99.90;;;;;;4596361;19;19918;-57
2023/08/24 03:49:44;;;;;;;;;;;22.90;99.90;;;;;;4596283;19;20240;-57
2023/08/24 03:51:19;;;;;;;;;;;23.00;99.90;;;;;;4596274;19;19934;-57
2023/08/24 03:52:54;;;;;;;;;;;23.00;99.90;;;;;;4596268;19;20227;-57
2023/08/24 03:54:29;;;;;;;;;;;23.10;99.90;;;;;;4595410;19;19938;-57
2023/08/24 03:56:03;;;;;;;;;;;23.10;99.90;;;;;;4596208;19;19919;-58
2023/08/24 03:57:37;;;;;;;;;;;23.20;99.90;;;;;;4596122;19;20311;-58
2023/08/24 03:59:13;;;;;;;;;;;23.20;99.90;;;;;;4596234;19;19974;-58
2023/08/24 04:00:46;;;;;;;;;;;23.30;99.90;;;;;;4594584;19;19940;-57
2023/08/24 04:02:20;;;;;;;;;;;23.30;99.90;;;;;;4596090;19;19915;-57
2023/08/24 04:03:56;;;;;;;;;;;23.30;99.90;;;;;;4595869;19;19919;-57
2023/08/24 04:05:30;;;;;;;;;;;23.30;99.90;;;;;;4596024;19;19921;-58
2023/08/24 04:07:03;;;;;;;;;;;23.30;99.90;;;;;;4596008;19;19919;-57
2023/08/24 04:08:39;;;;;;;;;;;23.30;99.90;;;;;;4595952;19;19911;-57
2023/08/24 04:10:12;;;;;;;;;;;23.40;99.90;;;;;;4595945;19;19911;-58
2023/08/24 04:11:45;;;;;;;;;;;23.30;99.90;;;;;;4595828;19;19955;-58
2023/08/24 04:13:20;;;;;;;;;;;23.30;99.90;;;;;;4595845;19;19914;-57
2023/08/24 04:14:56;;;;;;;;;;;23.30;99.90;;;;;;4594588;19;20221;-59
2023/08/24 04:16:29;;;;;;;;;;;23.30;99.90;;;;;;4595848;19;19929;-59
2023/08/24 04:18:04;;;;;;;;;;;23.40;99.90;;;;;;4595836;19;19925;-59
2023/08/24 04:19:40;;;;;;;;;;;23.50;99.90;;;;;;4595502;19;19923;-59
2023/08/24 04:21:14;;;;;;;;;;;23.60;99.90;;;;;;4595754;19;19915;-59
2023/08/24 04:22:48;;;;;;;;;;;23.50;99.90;;;;;;4595722;19;19914;-59
2023/08/24 04:24:22;;;;;;;;;;;23.50;99.90;;;;;;4594972;19;20304;-59
2023/08/24 04:25:56;;;;;;;;;;;23.40;99.90;;;;;;4594255;19;19935;-59
2023/08/24 04:27:31;;;;;;;;;;;23.30;99.90;;;;;;4595455;19;19947;-59
2023/08/24 04:29:05;;;;;;;;;;;23.30;99.90;;;;;;4595473;19;19915;-59
2023/08/24 04:30:39;;;;;;;;;;;23.20;99.90;;;;;;4595495;19;19943;-59
2023/08/24 04:32:14;;;;;;;;;;;23.20;99.90;;;;;;4595442;19;19919;-59
2023/08/24 04:33:47;;;;;;;;;;;23.10;99.90;;;;;;4595364;19;20295;-59
2023/08/24 04:35:22;;;;;;;;;;;23.10;99.90;;;;;;4593060;19;19943;-59
2023/08/24 04:36:58;;;;;;;;;;;23.10;99.90;;;;;;4595380;19;19974;-59
2023/08/24 04:38:33;;;;;;;;;;;23.10;99.90;;;;;;4595285;19;19953;-59
2023/08/24 04:40:11;;;;;;;;;;;23.10;99.90;;;;;;4594577;19;19911;-58
2023/08/24 04:41:46;;;;;;;;;;;23.20;99.90;;;;;;4595311;19;19915;-59
2023/08/24 04:43:20;;;;;;;;;;;23.20;99.90;;;;;;4595243;19;20205;-59
2023/08/24 04:44:54;;;;;;;;;;;23.20;99.90;;;;;;4594015;19;19967;-59
2023/08/24 04:46:29;;;;;;;;;;;23.30;99.90;;;;;;4595170;19;19922;-59
2023/08/24 04:48:03;;;;;;;;;;;23.30;99.90;;;;;;4594874;19;19911;-59
2023/08/24 04:49:36;;;;;;;;;;;23.30;99.90;;;;;;4595024;19;19921;-58
2023/08/24 04:51:12;;;;;;;;;;;23.30;99.90;;;;;;4595082;19;20307;-59
2023/08/24 04:52:45;;;;;;;;;;;23.40;99.90;;;;;;4594992;19;20299;-59
2023/08/24 04:54:19;;;;;;;;;;;23.10;99.90;;;;;;4594401;19;19915;-57
2023/08/24 04:55:54;;;;;;;;;;;23.20;99.90;;;;;;4594919;19;19952;-56
2023/08/24 04:57:28;;;;;;;;;;;23.30;99.90;;;;;;4594931;19;19922;-58
2023/08/24 04:59:02;;;;;;;;;;;23.40;99.90;;;;;;4594872;19;19926;-59
2023/08/24 05:01:11;;;;;;;;;;;23.50;99.90;;;;;;4582706;19;19978;-59
2023/08/24 05:03:41;;;;;;;;;;;23.50;99.90;;;;;;4594114;19;20212;-58
2023/08/24 05:06:03;;;;;;;;;;;23.60;99.90;;;;;;4592401;19;19915;-59
2023/08/24 05:10:18;;;;;;;;;;;23.50;99.90;;;;;;4589262;19;19942;-59
2023/08/24 05:11:53;;;;;;;;;;;23.50;99.90;;;;;;4592002;19;19922;-59
2023/08/24 05:13:27;;;;;;;;;;;23.50;99.90;;;;;;4591949;19;19929;-57
2023/08/24 05:15:14;;;;;;;;;;;23.50;99.90;;;;;;4591697;19;19911;-56
2023/08/24 05:17:32;;;;;;;;;;;23.50;99.90;;;;;;4593125;19;19919;-58
2023/08/24 05:19:56;;;;;;;;;;;21.70;99.90;;;;;;4591371;19;19934;-58
2023/08/24 05:22:15;;;;;;;;;;;19.90;99.90;;;;;;4594353;19;20290;-56
2023/08/24 05:24:27;;;;;;;;;;;19.30;99.90;;;;;;4592391;19;19915;-58
2023/08/24 05:26:49;;;;;;;;;;;19.20;99.90;;;;;;4592294;19;19915;-58
2023/08/24 05:28:55;;;;;;;;;;;19.10;99.90;;;;;;4590852;19;19935;-56
2023/08/24 05:30:30;;;;;;;;;;;19.20;99.90;;;;;;4591743;19;20308;-57
2023/08/24 05:32:04;;;;;;;;;;;19.20;99.90;;;;;;4592100;19;19919;-58
2023/08/24 05:33:37;;;;;;;;;;;19.20;99.90;;;;;;4591950;19;20265;-58
2023/08/24 05:35:15;;;;;;;;;;;19.20;99.90;;;;;;4591608;19;19919;-59
2023/08/24 05:37:01;;;;;;;;;;;19.30;99.90;;;;;;4593286;19;19922;-58
2023/08/24 05:38:46;;;;;;;;;;;19.30;99.90;;;;;;4593654;19;19971;-58
2023/08/24 05:40:30;;;;;;;;;;;19.30;99.90;;;;;;4593273;19;20236;-57
2023/08/24 05:42:03;;;;;;;;;;;19.30;99.90;;;;;;4593936;19;20289;-58
2023/08/24 05:43:38;;;;;;;;;;;19.30;99.90;;;;;;4593980;19;19943;-57
2023/08/24 05:45:12;;;;;;;;;;;19.30;99.90;;;;;;4591754;19;20208;-58
2023/08/24 05:46:46;;;;;;;;;;;19.30;99.90;;;;;;4592717;19;19917;-57
2023/08/24 05:48:19;;;;;;;;;;;19.30;99.90;;;;;;4592876;19;19927;-57
2023/08/24 05:49:54;;;;;;;;;;;19.30;99.90;;;;;;4592105;19;19914;-55
2023/08/24 05:51:28;;;;;;;;;;;19.30;99.90;;;;;;4593804;19;19911;-56
2023/08/24 05:53:01;;;;;;;;;;;19.30;99.90;;;;;;4593834;19;19939;-55
2023/08/24 05:54:37;;;;;;;;;;;19.30;99.90;;;;;;4593011;19;19919;-56
2023/08/24 05:56:11;;;;;;;;;;;19.30;99.90;;;;;;4593692;19;19949;-56
2023/08/24 05:57:45;;;;;;;;;;;19.40;99.90;;;;;;4593701;19;19939;-57
2023/08/24 05:59:20;;;;;;;;;;;19.30;99.90;;;;;;4593659;19;19915;-56
2023/08/24 06:00:57;;;;;;;;;;;19.30;99.90;;;;;;4592564;19;19915;-58
2023/08/24 06:02:31;;;;;;;;;;;19.40;99.90;;;;;;4593584;19;20342;-57
2023/08/24 06:04:12;;;;;;;;;;;19.40;99.90;;;;;;4591980;19;19941;-57
2023/08/24 06:05:45;;;;;;;;;;;19.40;99.90;;;;;;4593268;19;20398;-56
2023/08/24 06:07:18;;;;;;;;;;;19.40;99.90;;;;;;4593495;19;19986;-56
2023/08/24 06:08:53;;;;;;;;;;;19.40;99.90;;;;;;4593460;19;20204;-57
2023/08/24 06:10:27;;;;;;;;;;;19.40;99.90;;;;;;4593483;19;19931;-57
2023/08/24 06:12:01;;;;;;;;;;;19.50;99.90;;;;;;4593405;19;19919;-56
2023/08/24 06:13:36;;;;;;;;;;;19.50;99.90;;;;;;4593409;19;19926;-56
2023/08/24 06:15:12;;;;;;;;;;;19.50;99.90;;;;;;4592353;19;20288;-57
2023/08/24 06:16:48;;;;;;;;;;;19.50;99.90;;;;;;4592136;19;20215;-56
2023/08/24 06:18:23;;;;;;;;;;;19.50;99.90;;;;;;4592988;19;19922;-56
2023/08/24 06:19:56;;;;;;;;;;;19.50;99.90;;;;;;4592903;19;19915;-57
2023/08/24 06:21:29;;;;;;;;;;;19.60;99.90;;;;;;4593258;19;19911;-57
2023/08/24 06:23:05;;;;;;;;;;;19.60;99.90;;;;;;4593237;19;20292;-56
2023/08/24 06:24:39;;;;;;;;;;;19.60;99.90;;;;;;4592535;19;19907;-57
2023/08/24 06:26:13;;;;;;;;;;;19.60;99.90;;;;;;4593105;19;19939;-56
2023/08/24 06:27:48;;;;;;;;;;;19.60;99.90;;;;;;4593151;19;19911;-57
2023/08/24 06:29:21;;;;;;;;;;;19.60;99.90;;;;;;4593059;19;19919;-57
2023/08/24 06:30:55;;;;;;;;;;;19.70;99.90;;;;;;4593110;19;19922;-56
2023/08/24 06:32:30;;;;;;;;;;;19.70;99.90;;;;;;4593055;19;19915;-56
2023/08/24 06:34:03;;;;;;;;;;;19.70;99.90;;;;;;4592730;19;19926;-57
2023/08/24 06:35:37;;;;;;;;;;;19.70;99.90;;;;;;4592941;19;19915;-57
2023/08/24 06:37:12;;;;;;;;;;;19.80;99.90;;;;;;4592985;19;19923;-56
2023/08/24 06:38:45;;;;;;;;;;;19.80;99.90;;;;;;4592899;19;20228;-57
2023/08/24 06:40:18;;;;;;;;;;;19.80;99.90;;;;;;4592692;19;19915;-57
2023/08/24 06:41:54;;;;;;;;;;;19.80;99.90;;;;;;4592843;19;19918;-56
2023/08/24 06:43:27;;;;;;;;;;;19.80;99.90;;;;;;4592870;19;20300;-56
2023/08/24 06:45:00;;;;;;;;;;;19.80;99.90;;;;;;4591840;19;19924;-55
2023/08/24 06:46:35;;;;;;;;;;;19.90;99.90;;;;;;4592878;19;19915;-57
2023/08/24 06:48:09;;;;;;;;;;;19.90;99.90;;;;;;4592733;19;19914;-57
2023/08/24 06:49:43;;;;;;;;;;;19.90;99.90;;;;;;4592772;19;19921;-58
2023/08/24 06:51:17;;;;;;;;;;;20.00;99.90;;;;;;4592688;19;19932;-57
2023/08/24 06:52:51;;;;;;;;;;;20.00;99.90;;;;;;4592685;19;19922;-57
2023/08/24 06:54:25;;;;;;;;;;;20.00;99.90;;;;;;4592130;19;19915;-57
2023/08/24 06:56:00;;;;;;;;;;;20.00;99.90;;;;;;4592639;19;20303;-57
2023/08/24 06:57:33;;;;;;;;;;;20.10;99.90;;;;;;4592642;19;19925;-57
2023/08/24 06:59:07;;;;;;;;;;;20.10;99.90;;;;;;4597113;19;19911;-58
2023/08/24 07:00:42;;;;;;;;;;;20.10;99.90;;;;;;4595942;19;19918;-61
2023/08/24 07:02:17;;;;;;;;;;;20.20;99.90;;;;;;4597341;19;19998;-61
2023/08/24 07:03:50;;;;;;;;;;;20.20;99.90;;;;;;4597061;19;19923;-61
2023/08/24 07:05:25;;;;;;;;;;;20.30;99.90;;;;;;4597274;19;19910;-61
2023/08/24 07:06:58;;;;;;;;;;;20.30;99.90;;;;;;4595905;19;19914;-60
2023/08/24 07:08:31;;;;;;;;;;;20.30;99.90;;;;;;4596986;19;20248;-61
2023/08/24 07:10:07;;;;;;;;;;;20.30;99.90;;;;;;4597345;19;19946;-60
2023/08/24 07:11:41;;;;;;;;;;;20.30;99.90;;;;;;4597076;19;19915;-60
2023/08/24 07:13:15;;;;;;;;;;;20.30;99.90;;;;;;4596989;19;19975;-61
2023/08/24 07:14:49;;;;;;;;;;;20.30;99.90;;;;;;4594415;19;19918;-60
2023/08/24 07:16:23;;;;;;;;;;;20.30;99.90;;;;;;4596600;19;19918;-61
2023/08/24 07:17:57;;;;;;;;;;;20.40;99.90;;;;;;4596919;19;20300;-61
2023/08/24 07:19:32;;;;;;;;;;;20.30;99.90;;;;;;4596869;19;19914;-61
2023/08/24 07:21:05;;;;;;;;;;;20.30;99.90;;;;;;4595298;19;20227;-61
2023/08/24 07:22:38;;;;;;;;;;;20.40;99.90;;;;;;4596789;19;19915;-61
2023/08/24 07:24:13;;;;;;;;;;;20.40;99.90;;;;;;4596157;19;19914;-61
2023/08/24 07:25:49;;;;;;;;;;;20.40;99.90;;;;;;4596857;19;19915;-61
2023/08/24 07:27:22;;;;;;;;;;;20.50;99.90;;;;;;4596742;19;20242;-61
2023/08/24 07:28:58;;;;;;;;;;;20.40;99.90;;;;;;4596659;19;19915;-61
2023/08/24 07:30:33;;;;;;;;;;;20.40;99.90;;;;;;4596739;19;20000;-61
2023/08/24 07:32:07;;;;;;;;;;;20.50;99.90;;;;;;4596622;19;19926;-61
2023/08/24 07:33:45;;;;;;;;;;;20.50;99.90;;;;;;4596597;19;20327;-61
2023/08/24 07:35:19;;;;;;;;;;;20.50;99.90;;;;;;4596651;19;19949;-61
2023/08/24 07:36:52;;;;;;;;;;;20.50;99.90;;;;;;4596731;19;20233;-61
2023/08/24 07:38:27;;;;;;;;;;;20.50;99.90;;;;;;4596544;19;19994;-62
2023/08/24 07:40:00;;;;;;;;;;;20.60;99.90;;;;;;4596050;19;19915;-62
2023/08/24 07:41:33;;;;;;;;;;;20.60;99.90;;;;;;4596524;19;19928;-59
2023/08/24 07:43:08;;;;;;;;;;;20.60;99.90;;;;;;4596533;19;19974;-59
2023/08/24 07:44:41;;;;;;;;;;;20.70;99.90;;;;;;4594916;19;19915;-59
2023/08/24 07:46:14;;;;;;;;;;;20.70;99.90;;;;;;4594698;19;19929;-59
2023/08/24 07:47:49;;;;;;;;;;;20.70;99.90;;;;;;4596349;19;19932;-59
2023/08/24 07:49:22;;;;;;;;;;;20.70;99.90;;;;;;4595101;19;20284;-59
2023/08/24 07:50:56;;;;;;;;;;;20.80;99.90;;;;;;4595907;19;19918;-59
2023/08/24 07:52:32;;;;;;;;;;;20.80;99.90;;;;;;4596386;19;19922;-59
2023/08/24 07:54:06;;;;;;;;;;;20.80;99.90;;;;;;4595811;19;19954;-58
2023/08/24 07:55:40;;;;;;;;;;;20.90;99.90;;;;;;4596269;19;20296;-59
2023/08/24 07:57:15;;;;;;;;;;;20.90;99.90;;;;;;4596266;19;19926;-60
2023/08/24 07:58:48;;;;;;;;;;;20.90;99.90;;;;;;4596337;19;19911;-60
2023/08/24 08:00:22;;;;;;;;;;;20.90;99.90;;;;;;4595309;19;19990;-60
2023/08/24 08:01:57;;;;;;;;;;;21.00;99.90;;;;;;4596170;19;19938;-59
2023/08/24 08:03:31;;;;;;;;;;;21.00;99.90;;;;;;4596025;19;19915;-60
2023/08/24 08:05:06;;;;;;;;;;;21.00;99.90;;;;;;4594395;19;19917;-60
2023/08/24 08:06:42;;;;;;;;;;;21.00;99.90;;;;;;4596051;19;19919;-60
2023/08/24 08:08:16;;;;;;;;;;;21.00;99.90;;;;;;4595987;19;19926;-60
2023/08/24 08:09:50;;;;;;;;;;;21.10;99.90;;;;;;4595828;19;19918;-60
2023/08/24 08:11:25;;;;;;;;;;;21.10;99.90;;;;;;4595953;19;19914;-60
2023/08/24 08:12:58;;;;;;;;;;;21.10;99.90;;;;;;4595926;19;19911;-60
2023/08/24 08:14:32;;;;;;;;;;;21.10;99.90;;;;;;4595028;19;20006;-60
2023/08/24 08:16:06;;;;;;;;;;;21.10;99.90;;;;;;4595828;19;20215;-59
2023/08/24 08:17:40;;;;;;;;;;;21.10;99.90;;;;;;4595878;19;20000;-60
2023/08/24 08:19:13;;;;;;;;;;;21.10;99.90;;;;;;4595617;19;19922;-60
2023/08/24 08:23:25;;;;;;;;;;;21.10;99.90;;;;;;4595095;19;19980;-59
2023/08/24 08:25:17;;;;;;;;;;;21.20;99.90;;;;;;4593440;19;19942;-59
2023/08/24 08:26:51;;;;;;;;;;;21.30;99.90;;;;;;4593787;19;19911;-59
2023/08/24 08:28:25;;;;;;;;;;;21.30;99.90;;;;;;4595383;19;19979;-59
2023/08/24 08:30:00;;;;;;;;;;;21.30;99.90;;;;;;4595501;19;20296;-59
2023/08/24 08:31:33;;;;;;;;;;;21.30;99.90;;;;;;4595588;19;19915;-60
2023/08/24 08:33:07;;;;;;;;;;;21.30;99.90;;;;;;4595218;19;19914;-59
2023/08/24 08:34:42;;;;;;;;;;;21.30;99.90;;;;;;4594460;19;20309;-59
2023/08/24 08:36:15;;;;;;;;;;;21.40;99.90;;;;;;4595314;19;20244;-59
2023/08/24 08:37:50;;;;;;;;;;;21.40;99.90;;;;;;4595299;19;19918;-60
2023/08/24 08:39:26;;;;;;;;;;;21.40;99.90;;;;;;4595353;19;20218;-60
2023/08/24 08:41:05;;;;;;;;;;;21.50;99.90;;;;;;4593872;19;19970;-60
2023/08/24 08:42:39;;;;;;;;;;;21.50;99.90;;;;;;4595266;19;19915;-60
2023/08/24 08:44:15;;;;;;;;;;;21.50;99.90;;;;;;4593668;19;19919;-60
2023/08/24 08:45:49;;;;;;;;;;;21.40;99.90;;;;;;4593688;19;19978;-60
2023/08/24 08:47:23;;;;;;;;;;;21.50;99.90;;;;;;4595106;19;19919;-60
2023/08/24 08:48:58;;;;;;;;;;;21.50;99.90;;;;;;4595074;19;19914;-59
2023/08/24 08:50:33;;;;;;;;;;;21.50;99.90;;;;;;4593763;19;20226;-59
2023/08/24 08:52:07;;;;;;;;;;;21.50;99.90;;;;;;4594620;19;19931;-60
2023/08/24 08:53:41;;;;;;;;;;;21.50;99.90;;;;;;4593737;19;19922;-59
2023/08/24 08:55:17;;;;;;;;;;;21.60;99.90;;;;;;4592252;19;19917;-59
2023/08/24 08:56:50;;;;;;;;;;;21.60;99.90;;;;;;4594577;19;19910;-60
2023/08/24 08:58:25;;;;;;;;;;;21.60;99.90;;;;;;4594901;19;19921;-59
2023/08/24 09:00:00;;;;;;;;;;;21.70;99.90;;;;;;4593182;19;20356;-59
2023/08/24 09:01:34;;;;;;;;;;;21.70;99.90;;;;;;4594849;19;19915;-59
2023/08/24 09:03:09;;;;;;;;;;;21.70;99.90;;;;;;4594857;19;19919;-59
2023/08/24 09:04:43;;;;;;;;;;;21.70;99.90;;;;;;4593886;19;19915;-59
2023/08/24 09:06:17;;;;;;;;;;;21.70;99.90;;;;;;4593550;19;19943;-59
2023/08/24 09:07:51;;;;;;;;;;;21.70;99.90;;;;;;4594417;19;20361;-60
2023/08/24 09:09:25;;;;;;;;;;;21.80;99.90;;;;;;4594790;19;19922;-59
2023/08/24 09:10:59;;;;;;;;;;;21.80;99.90;;;;;;4594667;19;20334;-59
2023/08/24 09:12:35;;;;;;;;;;;21.80;99.90;;;;;;4594720;19;19918;-59
2023/08/24 09:14:08;;;;;;;;;;;21.80;99.90;;;;;;4593851;19;19927;-58
2023/08/24 09:15:41;;;;;;;;;;;21.80;99.90;;;;;;4594455;19;19936;-58
2023/08/24 09:17:22;;;;;;;;;;;21.90;99.90;;;;;;4594538;19;19986;-59
2023/08/24 09:19:00;;;;;;;;;;;21.90;99.90;;;;;;4594472;19;19942;-59
2023/08/24 09:20:34;;;;;;;;;;;21.90;99.90;;;;;;4592736;19;19914;-59
2023/08/24 09:22:09;;;;;;;;;;;21.90;99.90;;;;;;4594284;19;19946;-59